Time;durP1;ratioP1;P1;durP2;ratioP2;P2;SDS_P1;SDS_P2;PMS_P1;PMS_P2;Temp;Humidity;BMP_temperature;BMP_pressure;BME280_temperature;BME280_humidity;BME280_pressure;Samples;Min_cycle;Max_cycle;Signal;HPM_P1;HPM_P2
2022/01/27 00:01:37;;;;;;;14.27;8.75;;;;;;;;;;5055217;28;20031;-78
2022/01/27 00:06:25;;;;;;;19.90;11.55;;;;;;;;;;5055355;28;20104;-78
2022/01/27 00:08:56;;;;;;;44.97;26.48;;;;;;;;;;5036958;28;20024;-77
2022/01/27 00:11:22;;;;;;;48.20;23.98;;;;;;;;;;5054997;28;20534;-78
2022/01/27 00:13:58;;;;;;;53.58;28.60;;;;;;;;;;5037047;28;20060;-78
2022/01/27 00:16:28;;;;;;;69.90;36.90;;;;;;;;;;5055136;28;20093;-79
2022/01/27 00:18:54;;;;;;;76.70;42.13;;;;;;;;;;5054570;28;20529;-78
2022/01/27 00:21:20;;;;;;;41.80;22.33;;;;;;;;;;5055238;28;20047;-78
2022/01/27 00:23:46;;;;;;;33.45;21.85;;;;;;;;;;5055752;28;20381;-78
2022/01/27 00:26:13;;;;;;;37.00;20.70;;;;;;;;;;5036772;28;20020;-78
2022/01/27 00:28:39;;;;;;;18.38;12.43;;;;;;;;;;5036447;28;20384;-78
2022/01/27 00:31:04;;;;;;;14.30;9.40;;;;;;;;;;5054189;28;20088;-78
2022/01/27 00:33:30;;;;;;;11.98;8.13;;;;;;;;;;5054670;28;20107;-78
2022/01/27 00:35:55;;;;;;;20.10;12.80;;;;;;;;;;5036644;28;20012;-78
2022/01/27 00:38:21;;;;;;;14.55;9.15;;;;;;;;;;5054380;28;20393;-79
2022/01/27 00:40:46;;;;;;;22.13;13.98;;;;;;;;;;5035973;28;20052;-78
2022/01/27 00:43:11;;;;;;;40.97;27.00;;;;;;;;;;5054363;28;20188;-78
2022/01/27 00:45:37;;;;;;;47.03;28.20;;;;;;;;;;5054630;28;20028;-79
2022/01/27 00:48:05;;;;;;;39.92;23.70;;;;;;;;;;5054533;28;20029;-78
2022/01/27 00:50:32;;;;;;;29.60;19.60;;;;;;;;;;5036393;28;20020;-78
2022/01/27 00:53:00;;;;;;;36.35;25.35;;;;;;;;;;5054314;28;20028;-78
2022/01/27 00:55:27;;;;;;;36.20;25.23;;;;;;;;;;5054377;28;20020;-79
2022/01/27 00:58:08;;;;;;;36.42;24.48;;;;;;;;;;5036369;28;20024;-78
2022/01/27 01:00:40;;;;;;;36.70;22.85;;;;;;;;;;5055347;28;20024;-78
2022/01/27 01:03:23;;;;;;;43.03;27.42;;;;;;;;;;5036413;28;20103;-78
2022/01/27 01:21:57;;;;;;;15.38;10.73;;;;;;;;;;5054343;28;20373;-78
2022/01/27 01:32:59;;;;;;;12.52;8.48;;;;;;;;;;5057778;28;20131;-77
2022/01/27 01:35:08;;;;;;;16.90;10.70;;;;;;;;;;5046723;28;20536;-78
2022/01/27 01:37:38;;;;;;;45.80;26.58;;;;;;;;;;5057910;28;20028;-77
2022/01/27 01:40:12;;;;;;;46.28;26.50;;;;;;;;;;5039884;28;20059;-78
2022/01/27 01:42:37;;;;;;;71.80;40.88;;;;;;;;;;5057942;28;20024;-78
2022/01/27 01:45:04;;;;;;;37.95;22.02;;;;;;;;;;5039961;28;20111;-78
2022/01/27 01:47:29;;;;;;;43.00;24.38;;;;;;;;;;5040016;28;20124;-77
2022/01/27 01:49:54;;;;;;;26.23;16.40;;;;;;;;;;5058629;28;20489;-78
2022/01/27 01:52:20;;;;;;;17.65;11.50;;;;;;;;;;5039567;28;20036;-78
2022/01/27 01:54:45;;;;;;;32.83;19.17;;;;;;;;;;5057572;28;20578;-79
2022/01/27 01:57:11;;;;;;;28.95;20.05;;;;;;;;;;5057514;28;20182;-79
2022/01/27 01:59:37;;;;;;;18.23;12.98;;;;;;;;;;5057484;28;20063;-79
2022/01/27 02:02:02;;;;;;;12.50;9.75;;;;;;;;;;5039106;28;20116;-78
2022/01/27 02:04:28;;;;;;;22.60;13.20;;;;;;;;;;5057203;28;20055;-77
2022/01/27 02:07:00;;;;;;;13.80;9.73;;;;;;;;;;5057688;28;20370;-77
2022/01/27 02:20:09;;;;;;;19.92;11.48;;;;;;;;;;5057309;28;20055;-78
2022/01/27 02:22:34;;;;;;;19.83;12.43;;;;;;;;;;5056934;28;20369;-77
2022/01/27 02:24:59;;;;;;;21.83;14.70;;;;;;;;;;5057016;28;20024;-78
2022/01/27 02:27:25;;;;;;;27.02;17.63;;;;;;;;;;5039671;28;20400;-78
2022/01/27 02:29:50;;;;;;;19.75;13.13;;;;;;;;;;5038466;28;20021;-78
2022/01/27 02:32:17;;;;;;;32.90;18.92;;;;;;;;;;5057201;28;20188;-78
2022/01/27 02:34:42;;;;;;;37.60;22.88;;;;;;;;;;5057624;28;20047;-78
2022/01/27 02:37:08;;;;;;;22.45;12.70;;;;;;;;;;5038428;28;20029;-78
2022/01/27 02:39:34;;;;;;;12.75;9.32;;;;;;;;;;5056399;28;20025;-78
2022/01/27 02:42:06;;;;;;;12.77;9.05;;;;;;;;;;5056578;28;20396;-78
2022/01/27 02:44:44;;;;;;;26.23;14.38;;;;;;;;;;5056508;28;20027;-78
2022/01/27 02:47:09;;;;;;;27.02;16.02;;;;;;;;;;5056730;28;20039;-78
2022/01/27 02:49:34;;;;;;;14.63;9.43;;;;;;;;;;5056776;28;20024;-79
2022/01/27 02:52:00;;;;;;;19.75;12.10;;;;;;;;;;5056628;28;20037;-78
2022/01/27 02:54:25;;;;;;;15.00;10.32;;;;;;;;;;5056573;28;20024;-78
2022/01/27 02:56:50;;;;;;;9.88;7.85;;;;;;;;;;5056425;28;20029;-78
2022/01/27 02:59:16;;;;;;;9.32;7.07;;;;;;;;;;5056312;28;20107;-78
2022/01/27 03:01:46;;;;;;;10.32;7.00;;;;;;;;;;5056582;28;20150;-77
2022/01/27 03:04:11;;;;;;;11.57;7.90;;;;;;;;;;5056716;28;20461;-79
2022/01/27 03:06:36;;;;;;;11.48;7.93;;;;;;;;;;5037650;28;20036;-79
2022/01/27 03:09:02;;;;;;;15.40;9.75;;;;;;;;;;5056641;28;20024;-77
2022/01/27 03:11:34;;;;;;;11.82;7.60;;;;;;;;;;5056134;28;20090;-78
2022/01/27 03:13:59;;;;;;;13.60;8.27;;;;;;;;;;5056171;28;20032;-79
2022/01/27 03:16:24;;;;;;;17.33;10.23;;;;;;;;;;5038094;28;20025;-78
2022/01/27 03:18:50;;;;;;;14.13;8.63;;;;;;;;;;5055480;28;20029;-78
2022/01/27 03:21:16;;;;;;;13.73;9.48;;;;;;;;;;5037946;28;20040;-78
2022/01/27 03:23:41;;;;;;;12.48;8.85;;;;;;;;;;5055615;28;20098;-77
2022/01/27 03:26:07;;;;;;;17.50;10.63;;;;;;;;;;5037500;28;20082;-78
2022/01/27 03:28:32;;;;;;;19.67;11.13;;;;;;;;;;5056076;28;20029;-78
2022/01/27 03:30:58;;;;;;;14.20;9.18;;;;;;;;;;5055666;28;20024;-78
2022/01/27 03:33:23;;;;;;;11.40;7.97;;;;;;;;;;5055611;28;20020;-79
2022/01/27 03:35:48;;;;;;;19.13;11.93;;;;;;;;;;5055628;28;20031;-77
2022/01/27 03:38:14;;;;;;;21.00;13.23;;;;;;;;;;5055629;28;20102;-78
2022/01/27 03:40:39;;;;;;;15.50;10.82;;;;;;;;;;5055090;28;20075;-78
2022/01/27 03:43:08;;;;;;;15.52;11.32;;;;;;;;;;5056431;28;20107;-78
2022/01/27 03:45:34;;;;;;;17.23;11.30;;;;;;;;;;5055446;28;20369;-78
2022/01/27 03:47:59;;;;;;;16.83;10.65;;;;;;;;;;5037030;28;20024;-77
2022/01/27 03:50:24;;;;;;;15.13;10.85;;;;;;;;;;5037171;28;20110;-77
2022/01/27 03:52:50;;;;;;;10.50;7.82;;;;;;;;;;5036402;28;20059;-77
2022/01/27 03:55:15;;;;;;;12.38;8.73;;;;;;;;;;5056075;28;20352;-78
2022/01/27 03:57:40;;;;;;;14.02;8.73;;;;;;;;;;5055042;28;20016;-78
2022/01/27 04:00:07;;;;;;;14.43;8.45;;;;;;;;;;5055121;28;20028;-78
2022/01/27 04:02:35;;;;;;;17.33;10.80;;;;;;;;;;5055232;28;20027;-78
2022/01/27 04:05:01;;;;;;;18.33;11.05;;;;;;;;;;5036872;28;20443;-78
2022/01/27 04:07:26;;;;;;;15.90;11.25;;;;;;;;;;5055368;28;20114;-79
2022/01/27 04:09:51;;;;;;;21.75;13.73;;;;;;;;;;5054916;28;20449;-79
2022/01/27 04:12:17;;;;;;;25.00;13.77;;;;;;;;;;5055001;28;20538;-78
2022/01/27 04:14:43;;;;;;;21.02;13.05;;;;;;;;;;5036770;28;20111;-78
2022/01/27 04:17:08;;;;;;;21.52;12.32;;;;;;;;;;5036937;28;20043;-78
2022/01/27 04:19:34;;;;;;;23.98;13.20;;;;;;;;;;5036950;28;20461;-79
2022/01/27 04:21:59;;;;;;;19.42;13.00;;;;;;;;;;5055060;28;20523;-78
2022/01/27 04:24:24;;;;;;;17.05;12.32;;;;;;;;;;5036807;28;20027;-79
2022/01/27 04:26:58;;;;;;;17.27;12.15;;;;;;;;;;5055881;28;20013;-78
2022/01/27 04:29:24;;;;;;;16.65;12.02;;;;;;;;;;5054670;28;20358;-78
2022/01/27 04:31:50;;;;;;;13.00;9.27;;;;;;;;;;5054507;28;20035;-79
2022/01/27 04:34:15;;;;;;;20.38;13.23;;;;;;;;;;5036756;28;20025;-77
2022/01/27 04:36:42;;;;;;;23.55;16.13;;;;;;;;;;5036353;28;20024;-78
2022/01/27 04:39:16;;;;;;;23.92;16.77;;;;;;;;;;5036775;28;20431;-78
2022/01/27 04:46:39;;;;;;;21.60;13.98;;;;;;;;;;5054629;28;20024;-79
2022/01/27 04:49:07;;;;;;;24.27;17.27;;;;;;;;;;5036662;28;20028;-78
2022/01/27 04:51:32;;;;;;;36.20;21.92;;;;;;;;;;5037220;28;20494;-78
2022/01/27 04:54:05;;;;;;;64.63;40.25;;;;;;;;;;5051475;28;20107;-78
2022/01/27 04:56:32;;;;;;;162.52;95.35;;;;;;;;;;5046752;28;20021;-78
2022/01/27 04:59:03;;;;;;;55.85;31.45;;;;;;;;;;5036012;28;20027;-78
2022/01/27 05:01:43;;;;;;;39.92;24.05;;;;;;;;;;5054383;28;20378;-79
2022/01/27 05:04:13;;;;;;;32.78;20.20;;;;;;;;;;5056055;28;20465;-79
2022/01/27 05:06:38;;;;;;;27.75;17.70;;;;;;;;;;5074032;28;20111;-79
2022/01/27 05:09:04;;;;;;;32.80;22.27;;;;;;;;;;5040431;28;20115;-77
2022/01/27 05:11:40;;;;;;;381.30;238.32;;;;;;;;;;5073243;28;20078;-77
2022/01/27 05:14:15;;;;;;;177.40;92.07;;;;;;;;;;5058510;28;20537;-78
2022/01/27 05:16:40;;;;;;;222.18;123.80;;;;;;;;;;5073707;28;20028;-79
2022/01/27 05:19:05;;;;;;;217.07;118.88;;;;;;;;;;5040601;28;20025;-79
2022/01/27 05:21:34;;;;;;;78.43;41.42;;;;;;;;;;5073798;28;20465;-78
2022/01/27 05:24:00;;;;;;;60.20;37.55;;;;;;;;;;5058682;28;20029;-79
2022/01/27 05:26:26;;;;;;;65.72;40.58;;;;;;;;;;5057888;28;20464;-79
2022/01/27 05:28:51;;;;;;;38.53;23.63;;;;;;;;;;5038569;28;20507;-79
2022/01/27 05:31:16;;;;;;;41.45;25.88;;;;;;;;;;5053407;28;20487;-79
2022/01/27 05:33:42;;;;;;;56.30;31.73;;;;;;;;;;5037777;28;20029;-78
2022/01/27 05:36:07;;;;;;;295.30;202.48;;;;;;;;;;5053294;28;20565;-78
2022/01/27 05:38:32;;;;;;;98.38;58.42;;;;;;;;;;5037962;28;20095;-78
2022/01/27 05:40:58;;;;;;;66.18;37.65;;;;;;;;;;5019657;28;20045;-78
2022/01/27 05:43:23;;;;;;;87.38;51.25;;;;;;;;;;5054791;28;20029;-79
2022/01/27 05:45:48;;;;;;;72.70;44.33;;;;;;;;;;5038510;28;20086;-79
2022/01/27 05:48:14;;;;;;;65.93;40.53;;;;;;;;;;5056238;28;20103;-80
2022/01/27 05:50:39;;;;;;;67.00;42.42;;;;;;;;;;5039670;28;20101;-77
2022/01/27 05:53:05;;;;;;;51.42;33.15;;;;;;;;;;5056610;28;20033;-77
2022/01/27 05:55:30;;;;;;;46.67;29.27;;;;;;;;;;5037980;28;20119;-78
2022/01/27 05:57:55;;;;;;;41.83;26.85;;;;;;;;;;5072238;28;20028;-78
2022/01/27 06:00:21;;;;;;;46.42;28.15;;;;;;;;;;5072106;28;20407;-79
2022/01/27 06:02:46;;;;;;;44.88;27.13;;;;;;;;;;5072418;28;20039;-78
2022/01/27 06:05:11;;;;;;;47.90;29.17;;;;;;;;;;5072781;28;20016;-79
2022/01/27 06:07:37;;;;;;;33.30;21.77;;;;;;;;;;5038560;28;20025;-79
2022/01/27 06:10:03;;;;;;;39.78;24.25;;;;;;;;;;5056956;28;20380;-80
2022/01/27 06:12:28;;;;;;;45.03;26.92;;;;;;;;;;5039074;28;20056;-77
2022/01/27 06:14:53;;;;;;;40.50;25.55;;;;;;;;;;5071381;28;20471;-79
2022/01/27 06:17:19;;;;;;;36.45;23.50;;;;;;;;;;5056978;28;20461;-78
2022/01/27 06:19:45;;;;;;;33.67;20.67;;;;;;;;;;5056907;28;20452;-77
2022/01/27 06:22:14;;;;;;;44.47;29.15;;;;;;;;;;5038366;28;20121;-79
2022/01/27 06:24:43;;;;;;;55.30;35.42;;;;;;;;;;5056145;28;20366;-78
2022/01/27 06:27:09;;;;;;;54.55;34.65;;;;;;;;;;5053824;28;20025;-78
2022/01/27 06:29:35;;;;;;;39.67;27.17;;;;;;;;;;5056486;28;20027;-77
2022/01/27 06:32:01;;;;;;;29.25;19.00;;;;;;;;;;5038634;28;20024;-77
2022/01/27 06:34:26;;;;;;;23.90;16.52;;;;;;;;;;5056449;28;20021;-78
2022/01/27 06:36:52;;;;;;;19.58;13.30;;;;;;;;;;5056310;28;20024;-79
2022/01/27 06:39:17;;;;;;;19.58;12.27;;;;;;;;;;5038183;28;20480;-78
2022/01/27 06:41:43;;;;;;;43.28;21.20;;;;;;;;;;5037677;28;20075;-78
2022/01/27 06:44:09;;;;;;;25.15;15.18;;;;;;;;;;5053440;28;20013;-78
2022/01/27 06:46:35;;;;;;;33.97;20.90;;;;;;;;;;5056092;28;20506;-77
2022/01/27 06:49:01;;;;;;;32.17;16.95;;;;;;;;;;5037910;28;20035;-79
2022/01/27 06:51:28;;;;;;;25.83;17.83;;;;;;;;;;5037734;28;20052;-79
2022/01/27 06:53:53;;;;;;;27.30;17.10;;;;;;;;;;5055753;28;20487;-77
2022/01/27 06:56:19;;;;;;;39.10;21.83;;;;;;;;;;5037221;28;20115;-75
2022/01/27 06:58:45;;;;;;;31.80;18.70;;;;;;;;;;5056908;28;20031;-75
2022/01/27 07:01:10;;;;;;;23.05;14.40;;;;;;;;;;5056060;28;20031;-75
2022/01/27 07:03:35;;;;;;;49.95;28.98;;;;;;;;;;5055448;28;20095;-75
2022/01/27 07:06:01;;;;;;;78.03;43.75;;;;;;;;;;5056159;28;20059;-76
2022/01/27 07:08:26;;;;;;;57.80;29.85;;;;;;;;;;5056125;28;20091;-76
2022/01/27 07:10:51;;;;;;;60.70;35.17;;;;;;;;;;5056369;28;20059;-77
2022/01/27 07:13:16;;;;;;;80.75;40.30;;;;;;;;;;5071643;28;20052;-75
2022/01/27 07:15:42;;;;;;;66.40;36.03;;;;;;;;;;5056644;28;20052;-76
2022/01/27 07:18:07;;;;;;;62.00;31.60;;;;;;;;;;5055507;28;20070;-76
2022/01/27 07:20:33;;;;;;;41.55;23.90;;;;;;;;;;5071504;28;20031;-76
2022/01/27 07:22:58;;;;;;;25.02;14.35;;;;;;;;;;5055756;28;20513;-76
2022/01/27 07:25:23;;;;;;;25.92;16.88;;;;;;;;;;5056196;28;20024;-77
2022/01/27 07:27:49;;;;;;;60.03;37.95;;;;;;;;;;5071329;28;20036;-75
2022/01/27 07:30:14;;;;;;;37.25;23.10;;;;;;;;;;5056067;28;20442;-76
2022/01/27 07:32:39;;;;;;;35.35;21.60;;;;;;;;;;5037475;28;20033;-76
2022/01/27 07:35:05;;;;;;;47.72;31.00;;;;;;;;;;5055900;28;20032;-75
2022/01/27 07:37:30;;;;;;;75.75;48.10;;;;;;;;;;5056764;28;20423;-77
2022/01/27 07:39:56;;;;;;;120.40;72.03;;;;;;;;;;5070421;28;20465;-76
2022/01/27 07:42:21;;;;;;;140.77;73.47;;;;;;;;;;5055607;28;20032;-75
2022/01/27 07:44:47;;;;;;;76.13;39.95;;;;;;;;;;5037143;28;20070;-77
2022/01/27 07:47:12;;;;;;;117.60;59.65;;;;;;;;;;5055534;28;20021;-78
2022/01/27 07:49:37;;;;;;;76.55;37.17;;;;;;;;;;5036879;28;20479;-78
2022/01/27 07:52:03;;;;;;;80.63;42.03;;;;;;;;;;5055403;28;20028;-77
2022/01/27 07:54:28;;;;;;;112.93;53.38;;;;;;;;;;5057563;28;20031;-78
2022/01/27 07:56:54;;;;;;;125.57;64.30;;;;;;;;;;5037063;28;20566;-79
2022/01/27 07:59:19;;;;;;;124.00;56.80;;;;;;;;;;5037510;28;20036;-81
2022/01/27 08:01:45;;;;;;;113.85;55.20;;;;;;;;;;5073121;28;20028;-78
2022/01/27 08:04:11;;;;;;;63.25;34.60;;;;;;;;;;5072000;28;20020;-77
2022/01/27 08:06:37;;;;;;;66.68;36.22;;;;;;;;;;5070008;28;20028;-80
2022/01/27 08:09:03;;;;;;;94.88;53.05;;;;;;;;;;5054642;28;20036;-77
2022/01/27 08:11:28;;;;;;;67.82;40.72;;;;;;;;;;5054295;28;20408;-77
2022/01/27 08:13:53;;;;;;;83.07;51.05;;;;;;;;;;5070527;28;20024;-78
2022/01/27 08:16:19;;;;;;;65.50;38.78;;;;;;;;;;5070682;28;20472;-78
2022/01/27 08:18:44;;;;;;;46.63;26.27;;;;;;;;;;5056310;28;20028;-77
2022/01/27 08:21:10;;;;;;;40.38;21.17;;;;;;;;;;5055043;28;20028;-77
2022/01/27 08:23:37;;;;;;;39.97;23.60;;;;;;;;;;5054936;28;20066;-78
2022/01/27 08:26:06;;;;;;;43.33;26.50;;;;;;;;;;5055609;28;20012;-79
2022/01/27 08:31:32;;;;;;;33.08;19.05;;;;;;;;;;5030228;28;20063;-78
2022/01/27 08:34:03;;;;;;;49.67;27.65;;;;;;;;;;5061272;28;20120;-77
2022/01/27 08:36:28;;;;;;;34.38;20.23;;;;;;;;;;5058706;28;20017;-77
2022/01/27 08:38:53;;;;;;;53.63;29.25;;;;;;;;;;5070209;28;20052;-76
2022/01/27 08:41:19;;;;;;;30.73;18.08;;;;;;;;;;5055667;28;20068;-76
2022/01/27 08:43:46;;;;;;;33.35;20.63;;;;;;;;;;5054866;28;20021;-77
2022/01/27 08:46:11;;;;;;;49.42;24.15;;;;;;;;;;5070000;28;20070;-77
2022/01/27 08:48:39;;;;;;;92.88;37.40;;;;;;;;;;5053752;28;20130;-76
2022/01/27 08:51:09;;;;;;;169.38;64.10;;;;;;;;;;5055473;28;20017;-76
2022/01/27 08:53:36;;;;;;;173.13;64.05;;;;;;;;;;5054795;28;20024;-77
2022/01/27 08:56:02;;;;;;;112.78;41.72;;;;;;;;;;5036323;28;20028;-77
2022/01/27 08:58:31;;;;;;;140.82;61.53;;;;;;;;;;5035691;28;20020;-75
2022/01/27 09:00:56;;;;;;;152.23;66.10;;;;;;;;;;5054022;28;20062;-78
2022/01/27 09:03:22;;;;;;;74.38;37.20;;;;;;;;;;5036601;28;20048;-76
2022/01/27 09:05:47;;;;;;;91.20;46.38;;;;;;;;;;5055621;28;20496;-74
2022/01/27 09:08:12;;;;;;;74.10;40.55;;;;;;;;;;5070306;28;20743;-77
2022/01/27 09:10:38;;;;;;;66.90;34.10;;;;;;;;;;5054299;28;20795;-74
2022/01/27 09:13:03;;;;;;;78.20;38.15;;;;;;;;;;5036684;28;20043;-75
2022/01/27 09:15:29;;;;;;;107.68;53.67;;;;;;;;;;5055283;28;20021;-76
2022/01/27 09:17:56;;;;;;;35.05;20.40;;;;;;;;;;5054227;28;20024;-76
2022/01/27 09:20:21;;;;;;;55.08;30.98;;;;;;;;;;5036752;28;20028;-76
2022/01/27 09:22:47;;;;;;;67.50;33.92;;;;;;;;;;5055500;28;20031;-76
2022/01/27 09:25:20;;;;;;;52.05;28.05;;;;;;;;;;5036618;28;20033;-74
2022/01/27 09:27:46;;;;;;;43.17;23.40;;;;;;;;;;5054919;28;20382;-75
2022/01/27 09:30:13;;;;;;;54.60;30.63;;;;;;;;;;5054656;28;20150;-74
2022/01/27 09:32:38;;;;;;;60.42;32.67;;;;;;;;;;5037855;28;21004;-75
2022/01/27 09:35:04;;;;;;;47.00;28.02;;;;;;;;;;5054739;28;20024;-75
2022/01/27 09:37:29;;;;;;;55.38;27.85;;;;;;;;;;5053882;28;20028;-74
2022/01/27 09:39:55;;;;;;;77.22;41.65;;;;;;;;;;5053882;28;20396;-74
2022/01/27 09:42:22;;;;;;;55.45;33.38;;;;;;;;;;5034664;28;20035;-76
2022/01/27 09:44:52;;;;;;;45.10;24.77;;;;;;;;;;5034042;28;20025;-77
2022/01/27 09:47:18;;;;;;;44.15;26.60;;;;;;;;;;5052207;28;20028;-77
2022/01/27 09:49:53;;;;;;;77.47;43.22;;;;;;;;;;5034563;28;20539;-75
2022/01/27 09:52:18;;;;;;;67.40;37.92;;;;;;;;;;5036424;28;20032;-75
2022/01/27 09:54:47;;;;;;;102.63;55.13;;;;;;;;;;5036563;28;20377;-76
2022/01/27 09:57:18;;;;;;;122.13;62.85;;;;;;;;;;5036421;28;20024;-75
2022/01/27 09:59:45;;;;;;;71.28;37.70;;;;;;;;;;5055009;28;20031;-77
2022/01/27 10:02:14;;;;;;;36.72;20.05;;;;;;;;;;5037842;28;20066;-75
2022/01/27 10:04:49;;;;;;;91.33;48.37;;;;;;;;;;5037540;28;20077;-77
2022/01/27 10:07:19;;;;;;;75.05;40.53;;;;;;;;;;5056619;28;20031;-74
2022/01/27 10:10:07;;;;;;;105.07;57.08;;;;;;;;;;5039203;28;20029;-77
2022/01/27 10:12:37;;;;;;;43.90;25.73;;;;;;;;;;5043379;28;20047;-75
2022/01/27 10:15:10;;;;;;;110.03;54.58;;;;;;;;;;5039453;28;20472;-75
2022/01/27 10:17:38;;;;;;;129.90;69.15;;;;;;;;;;5039403;28;20077;-77
2022/01/27 10:20:14;;;;;;;59.15;39.42;;;;;;;;;;5057370;28;20028;-75
2022/01/27 10:22:39;;;;;;;46.97;34.22;;;;;;;;;;5039293;28;20081;-75
2022/01/27 10:25:09;;;;;;;30.67;19.98;;;;;;;;;;5039696;28;20028;-75
2022/01/27 10:27:55;;;;;;;80.95;47.47;;;;;;;;;;5038895;28;20063;-76
2022/01/27 10:32:51;;;;;;;40.00;23.33;;;;;;;;;;5056802;28;20500;-76
2022/01/27 10:35:19;;;;;;;33.15;20.70;;;;;;;;;;5056844;28;20040;-76
2022/01/27 10:38:03;;;;;;;39.65;22.90;;;;;;;;;;5057855;28;20058;-75
2022/01/27 10:40:30;;;;;;;53.22;37.28;;;;;;;;;;5056839;28;20041;-76
2022/01/27 10:43:03;;;;;;;72.80;49.55;;;;;;;;;;5057589;28;20032;-77
2022/01/27 10:45:29;;;;;;;48.42;34.28;;;;;;;;;;5057065;28;20552;-75
2022/01/27 10:48:14;;;;;;;47.60;35.58;;;;;;;;;;5038729;28;20115;-75
2022/01/27 10:50:49;;;;;;;44.28;32.65;;;;;;;;;;5043079;28;20454;-76
2022/01/27 10:53:15;;;;;;;44.33;28.48;;;;;;;;;;5038742;28;20083;-76
2022/01/27 10:55:40;;;;;;;29.67;17.85;;;;;;;;;;5056510;28;20020;-76
2022/01/27 10:58:25;;;;;;;53.35;38.55;;;;;;;;;;5038793;28;20063;-76
2022/01/27 11:00:58;;;;;;;63.97;39.13;;;;;;;;;;5055814;28;20372;-76
2022/01/27 11:03:23;;;;;;;133.30;66.20;;;;;;;;;;5056643;28;20445;-76
2022/01/27 11:05:50;;;;;;;91.13;38.75;;;;;;;;;;5056565;28;20078;-77
2022/01/27 11:08:18;;;;;;;66.03;31.55;;;;;;;;;;5056388;28;20122;-78
2022/01/27 11:10:48;;;;;;;56.30;34.08;;;;;;;;;;5057450;28;20044;-77
2022/01/27 11:13:15;;;;;;;78.28;50.97;;;;;;;;;;5057516;28;20116;-76
2022/01/27 11:15:42;;;;;;;66.43;40.40;;;;;;;;;;5055756;28;20029;-75
2022/01/27 11:18:07;;;;;;;74.00;46.20;;;;;;;;;;5039487;28;20111;-76
2022/01/27 11:20:51;;;;;;;42.33;25.00;;;;;;;;;;5056033;28;20131;-76
2022/01/27 11:26:09;;;;;;;84.85;52.65;;;;;;;;;;5056470;28;20035;-76
2022/01/27 11:28:35;;;;;;;30.75;19.38;;;;;;;;;;5055894;28;20024;-76
2022/01/27 11:31:09;;;;;;;32.55;22.15;;;;;;;;;;5037852;28;20602;-76
2022/01/27 11:33:35;;;;;;;40.92;22.95;;;;;;;;;;5056581;28;20099;-78
2022/01/27 11:36:11;;;;;;;40.03;27.02;;;;;;;;;;5037684;28;20020;-76
2022/01/27 11:38:38;;;;;;;57.13;35.72;;;;;;;;;;5037342;28;20166;-76
2022/01/27 11:41:03;;;;;;;44.10;25.35;;;;;;;;;;5034001;28;20130;-78
2022/01/27 11:43:38;;;;;;;34.63;21.15;;;;;;;;;;5033764;28;20107;-76
2022/01/27 11:46:14;;;;;;;28.80;16.52;;;;;;;;;;5035866;28;20062;-76
2022/01/27 11:48:39;;;;;;;26.65;16.35;;;;;;;;;;5031549;28;20385;-76
2022/01/27 11:51:07;;;;;;;31.65;20.70;;;;;;;;;;5034112;28;20017;-76
2022/01/27 11:53:49;;;;;;;31.70;20.50;;;;;;;;;;5034151;28;20560;-76
2022/01/27 11:56:23;;;;;;;38.50;24.70;;;;;;;;;;5034763;28;20531;-78
2022/01/27 11:58:59;;;;;;;38.42;23.02;;;;;;;;;;5032977;28;20020;-77
2022/01/27 12:01:28;;;;;;;38.60;22.45;;;;;;;;;;5042059;28;20517;-76
2022/01/27 12:04:09;;;;;;;39.95;22.58;;;;;;;;;;5037603;28;20146;-77
2022/01/27 12:06:34;;;;;;;51.60;33.15;;;;;;;;;;5036484;28;20053;-78
2022/01/27 12:09:21;;;;;;;34.17;21.67;;;;;;;;;;5035056;28;20087;-78
2022/01/27 12:11:52;;;;;;;35.45;24.02;;;;;;;;;;5037645;28;20033;-77
2022/01/27 12:14:21;;;;;;;43.90;28.48;;;;;;;;;;5034150;28;20025;-77
2022/01/27 12:17:06;;;;;;;52.03;31.55;;;;;;;;;;5033160;28;20517;-74
2022/01/27 12:19:45;;;;;;;113.72;55.05;;;;;;;;;;5033228;28;20116;-77
2022/01/27 12:22:11;;;;;;;;;;;;;;;;;;5034311;28;20119;-78
2022/01/27 12:24:49;;;;;;;109.40;67.78;;;;;;;;;;5032951;28;19909;-77
2022/01/27 12:27:18;;;;;;;51.40;32.78;;;;;;;;;;5033474;28;20025;-78
2022/01/27 12:29:49;;;;;;;62.40;41.30;;;;;;;;;;5033774;28;20032;-75
2022/01/27 12:32:17;;;;;;;39.00;26.65;;;;;;;;;;5034733;28;20029;-77
2022/01/27 12:34:52;;;;;;;24.27;14.93;;;;;;;;;;5014571;28;20025;-76
2022/01/27 12:37:20;;;;;;;42.80;29.08;;;;;;;;;;5014031;28;20464;-77
2022/01/27 12:39:57;;;;;;;48.67;32.88;;;;;;;;;;5020240;28;20098;-78
2022/01/27 12:42:30;;;;;;;50.03;35.10;;;;;;;;;;5053700;28;20087;-75
2022/01/27 12:44:59;;;;;;;33.65;21.38;;;;;;;;;;5034788;28;21121;-76
2022/01/27 12:47:25;;;;;;;26.02;18.73;;;;;;;;;;5035048;28;20101;-77
2022/01/27 12:50:01;;;;;;;54.60;38.42;;;;;;;;;;5034563;28;20033;-76
2022/01/27 12:52:29;;;;;;;49.92;31.88;;;;;;;;;;5016396;28;20025;-78
2022/01/27 12:54:54;;;;;;;34.60;23.50;;;;;;;;;;5049963;28;20495;-77
2022/01/27 12:57:27;;;;;;;53.00;29.88;;;;;;;;;;5034619;28;20060;-79
2022/01/27 12:59:54;;;;;;;56.85;33.20;;;;;;;;;;5034011;28;20098;-78
2022/01/27 13:02:20;;;;;;;33.60;20.45;;;;;;;;;;5036605;28;20373;-78
2022/01/27 13:04:45;;;;;;;46.15;33.25;;;;;;;;;;5036008;28;20021;-78
2022/01/27 13:07:11;;;;;;;87.57;52.50;;;;;;;;;;5035783;28;20693;-77
2022/01/27 13:09:39;;;;;;;44.97;31.50;;;;;;;;;;5036282;28;20044;-79
2022/01/27 13:12:20;;;;;;;35.92;23.17;;;;;;;;;;5035646;28;20028;-79
2022/01/27 13:15:05;;;;;;;43.60;26.63;;;;;;;;;;5053855;28;20024;-78
2022/01/27 13:17:36;;;;;;;30.13;19.40;;;;;;;;;;5053740;28;20472;-78
2022/01/27 13:20:13;;;;;;;34.10;23.33;;;;;;;;;;5053528;28;20028;-76
2022/01/27 13:22:46;;;;;;;28.90;18.92;;;;;;;;;;5034413;28;20384;-77
2022/01/27 13:25:11;;;;;;;81.18;44.33;;;;;;;;;;5052898;28;20458;-76
2022/01/27 13:27:37;;;;;;;85.68;40.70;;;;;;;;;;5039997;28;20020;-78
2022/01/27 13:30:03;;;;;;;58.20;33.28;;;;;;;;;;5040380;28;20032;-78
2022/01/27 13:32:28;;;;;;;44.05;28.02;;;;;;;;;;5057537;28;20121;-78
2022/01/27 13:34:54;;;;;;;38.63;25.77;;;;;;;;;;5057180;28;20024;-78
2022/01/27 13:37:30;;;;;;;46.00;28.52;;;;;;;;;;5039338;28;20027;-77
2022/01/27 13:42:21;;;;;;;31.80;20.15;;;;;;;;;;5056610;28;20056;-77
2022/01/27 13:44:53;;;;;;;36.38;25.20;;;;;;;;;;5039693;28;20029;-77
2022/01/27 13:47:30;;;;;;;36.55;24.25;;;;;;;;;;5057172;28;20059;-77
2022/01/27 13:50:09;;;;;;;54.60;35.83;;;;;;;;;;5038549;28;20028;-76
2022/01/27 13:52:45;;;;;;;47.72;27.85;;;;;;;;;;5056664;28;20064;-78
2022/01/27 13:55:15;;;;;;;80.95;47.55;;;;;;;;;;5072947;28;20392;-77
2022/01/27 13:58:03;;;;;;;28.17;18.40;;;;;;;;;;5057446;28;20028;-76
2022/01/27 14:00:30;;;;;;;34.35;20.95;;;;;;;;;;5056202;28;20042;-76
2022/01/27 14:03:07;;;;;;;22.27;14.55;;;;;;;;;;5039226;28;20037;-77
2022/01/27 14:05:32;;;;;;;26.48;16.27;;;;;;;;;;5037971;28;20464;-79
2022/01/27 14:07:58;;;;;;;44.08;25.15;;;;;;;;;;5056262;28;20016;-77
2022/01/27 14:10:42;;;;;;;29.83;20.20;;;;;;;;;;5039530;28;21044;-77
2022/01/27 14:13:22;;;;;;;39.78;26.33;;;;;;;;;;5057299;28;20788;-76
2022/01/27 14:15:52;;;;;;;33.85;21.10;;;;;;;;;;5057501;28;20025;-76
2022/01/27 14:18:27;;;;;;;35.63;21.23;;;;;;;;;;5039443;28;20024;-77
2022/01/27 14:20:54;;;;;;;27.63;16.98;;;;;;;;;;5056289;28;20027;-76
2022/01/27 14:23:29;;;;;;;46.70;25.52;;;;;;;;;;5038030;28;20037;-76
2022/01/27 14:25:59;;;;;;;77.47;48.58;;;;;;;;;;5027383;28;20587;-77
2022/01/27 14:28:24;;;;;;;48.90;30.65;;;;;;;;;;5034535;28;20059;-77
2022/01/27 14:30:50;;;;;;;43.40;28.70;;;;;;;;;;5037770;28;20056;-77
2022/01/27 14:33:16;;;;;;;74.53;39.83;;;;;;;;;;5056258;28;20028;-75
2022/01/27 14:35:42;;;;;;;55.42;31.75;;;;;;;;;;5057600;28;20028;-78
2022/01/27 14:38:08;;;;;;;43.55;26.95;;;;;;;;;;5072225;28;20040;-77
2022/01/27 14:40:33;;;;;;;47.22;28.20;;;;;;;;;;5046041;28;20075;-78
2022/01/27 14:43:01;;;;;;;56.17;33.30;;;;;;;;;;5018487;28;20371;-77
2022/01/27 14:45:27;;;;;;;47.72;30.27;;;;;;;;;;5037540;28;20021;-76
2022/01/27 14:47:58;;;;;;;34.50;21.33;;;;;;;;;;5018699;28;20027;-77
2022/01/27 14:50:23;;;;;;;32.33;19.33;;;;;;;;;;5046282;28;20031;-77
2022/01/27 14:52:51;;;;;;;36.05;22.00;;;;;;;;;;5055584;28;20384;-77
2022/01/27 14:55:16;;;;;;;32.58;20.08;;;;;;;;;;5053968;28;20443;-76
2022/01/27 14:57:42;;;;;;;32.75;22.10;;;;;;;;;;5037996;28;20077;-77
2022/01/27 15:00:10;;;;;;;39.90;24.10;;;;;;;;;;5056562;28;20441;-75
2022/01/27 15:02:36;;;;;;;34.55;22.60;;;;;;;;;;5056318;28;20111;-75
2022/01/27 15:05:02;;;;;;;36.20;22.60;;;;;;;;;;5038299;28;20060;-76
2022/01/27 15:07:27;;;;;;;30.67;19.52;;;;;;;;;;5037567;28;20492;-76
2022/01/27 15:09:53;;;;;;;108.00;59.05;;;;;;;;;;5055188;28;20100;-76
2022/01/27 15:12:18;;;;;;;75.03;43.65;;;;;;;;;;5055580;28;20024;-77
2022/01/27 15:20:12;;;;;;;34.58;23.85;;;;;;;;;;5056104;28;20051;-76